Time;durP1;ratioP1;P1;durP2;ratioP2;P2;SDS_P1;SDS_P2;PMS_P1;PMS_P2;Temp;Humidity;BMP_temperature;BMP_pressure;BME280_temperature;BME280_humidity;BME280_pressure;Samples;Min_cycle;Max_cycle;Signal;HPM_P1;HPM_P2
2022/11/25 00:01:20;;;;;;;15.70;4.38;;;6.70;99.90;;;;;;5047523;28;20156;-76
2022/11/25 00:03:47;;;;;;;21.92;5.07;;;6.70;99.90;;;;;;5043507;28;20061;-79
2022/11/25 00:06:16;;;;;;;20.38;5.70;;;6.70;99.90;;;;;;5040383;28;20068;-76
2022/11/25 00:08:44;;;;;;;29.88;4.28;;;6.60;99.90;;;;;;5032627;28;20461;-76
2022/11/25 00:11:11;;;;;;;21.85;4.57;;;6.60;99.90;;;;;;5058846;28;20041;-76
2022/11/25 00:13:37;;;;;;;20.58;4.63;;;6.60;99.90;;;;;;5046696;28;20124;-78
2022/11/25 00:16:05;;;;;;;18.55;4.00;;;6.50;99.90;;;;;;5031828;28;20053;-77
2022/11/25 00:18:31;;;;;;;21.83;4.80;;;6.60;99.90;;;;;;5045103;28;20071;-80
2022/11/25 00:20:57;;;;;;;18.40;4.10;;;6.60;99.90;;;;;;5042972;28;20053;-77
2022/11/25 00:23:23;;;;;;;24.88;4.75;;;6.60;99.90;;;;;;5043279;28;20049;-77
2022/11/25 00:25:49;;;;;;;22.80;4.53;;;6.50;99.90;;;;;;5054824;28;20559;-77
2022/11/25 00:28:17;;;;;;;25.13;4.38;;;6.60;99.90;;;;;;5050992;28;20080;-78
2022/11/25 00:30:43;;;;;;;30.48;5.43;;;6.60;99.90;;;;;;5054841;28;20510;-76
2022/11/25 00:33:08;;;;;;;22.77;5.18;;;6.70;99.90;;;;;;5025900;28;20053;-77
2022/11/25 00:35:34;;;;;;;24.52;4.35;;;6.70;99.90;;;;;;5047052;28;20053;-77
2022/11/25 00:38:00;;;;;;;16.23;4.00;;;6.70;99.90;;;;;;5045891;28;20127;-77
2022/11/25 00:40:26;;;;;;;21.80;4.97;;;6.70;99.90;;;;;;5047097;28;20140;-78
2022/11/25 00:45:35;;;;;;;27.63;5.45;;;6.80;99.90;;;;;;5030136;28;20053;-76
2022/11/25 00:48:01;;;;;;;17.95;4.57;;;6.80;99.90;;;;;;5042966;28;20045;-77
2022/11/25 00:50:26;;;;;;;26.25;4.78;;;6.80;99.90;;;;;;5046672;28;20048;-78
2022/11/25 00:52:52;;;;;;;18.38;4.18;;;6.80;99.90;;;;;;5045353;28;20045;-77
2022/11/25 00:55:18;;;;;;;23.88;4.72;;;6.90;99.90;;;;;;5027247;28;20055;-77
2022/11/25 00:57:43;;;;;;;16.30;4.05;;;6.90;99.90;;;;;;5056929;28;20069;-78
2022/11/25 01:00:10;;;;;;;18.55;4.75;;;6.90;99.90;;;;;;5043151;28;20139;-76
2022/11/25 01:02:36;;;;;;;21.15;5.13;;;6.90;99.90;;;;;;5054242;28;20122;-77
2022/11/25 01:05:02;;;;;;;21.25;4.22;;;7.00;99.90;;;;;;5049319;28;20053;-77
2022/11/25 01:07:28;;;;;;;19.25;5.35;;;7.00;99.90;;;;;;5050212;28;20084;-77
2022/11/25 01:09:54;;;;;;;21.35;4.72;;;7.10;99.90;;;;;;5017955;28;20076;-76
2022/11/25 01:12:19;;;;;;;23.77;5.20;;;7.00;99.90;;;;;;5041950;28;20049;-77
2022/11/25 01:14:45;;;;;;;20.10;4.07;;;7.00;99.90;;;;;;4998564;28;20148;-77
2022/11/25 01:17:11;;;;;;;22.05;4.70;;;7.00;99.90;;;;;;5048380;28;20050;-78
2022/11/25 01:19:39;;;;;;;22.27;5.00;;;7.00;99.90;;;;;;5031983;28;20068;-77
2022/11/25 01:22:07;;;;;;;24.20;4.57;;;7.00;99.90;;;;;;5047309;28;20394;-76
2022/11/25 01:24:33;;;;;;;21.88;5.53;;;7.00;99.90;;;;;;5037190;28;20045;-77
2022/11/25 01:26:58;;;;;;;23.50;5.35;;;7.00;99.90;;;;;;5023853;28;20453;-78
2022/11/25 01:29:24;;;;;;;23.48;4.03;;;7.00;99.90;;;;;;5062413;28;20125;-77
2022/11/25 01:31:53;;;;;;;25.25;5.25;;;7.00;99.90;;;;;;5038073;28;20061;-80
2022/11/25 01:34:21;;;;;;;22.58;4.68;;;7.00;99.90;;;;;;5058607;28;20132;-78
2022/11/25 01:36:48;;;;;;;31.33;4.80;;;7.00;99.90;;;;;;5066055;28;20041;-77
2022/11/25 01:39:19;;;;;;;20.42;4.25;;;7.00;99.90;;;;;;5042993;28;20399;-77
2022/11/25 01:41:46;;;;;;;19.67;4.00;;;7.10;99.90;;;;;;5039778;28;20053;-82
2022/11/25 01:44:16;;;;;;;18.33;4.20;;;7.10;99.90;;;;;;5048529;28;20068;-77
2022/11/25 01:46:54;;;;;;;16.52;4.20;;;7.10;99.90;;;;;;5065625;28;20067;-77
2022/11/25 01:49:28;;;;;;;21.42;4.70;;;7.10;99.90;;;;;;5057947;28;20041;-77
2022/11/25 01:52:31;;;;;;;16.23;4.40;;;7.10;99.90;;;;;;5055540;28;20049;-77
2022/11/25 01:55:13;;;;;;;23.15;4.60;;;7.10;99.90;;;;;;5037538;28;20498;-78
2022/11/25 01:57:44;;;;;;;20.30;4.32;;;7.10;99.90;;;;;;5046220;28;20056;-78
2022/11/25 02:00:10;;;;;;;17.95;4.10;;;7.10;99.90;;;;;;5043380;28;20056;-77
2022/11/25 02:02:36;;;;;;;22.73;4.30;;;7.20;99.90;;;;;;5049793;28;20056;-77
2022/11/25 02:05:07;;;;;;;24.35;6.07;;;7.20;99.90;;;;;;5062876;28;20037;-76
2022/11/25 02:07:36;;;;;;;19.48;4.65;;;7.20;99.90;;;;;;5031922;28;20052;-78
2022/11/25 02:10:05;;;;;;;24.05;4.07;;;7.20;99.90;;;;;;5045256;28;20041;-77
2022/11/25 02:12:34;;;;;;;21.05;5.53;;;7.20;99.90;;;;;;5045325;28;20045;-78
2022/11/25 02:15:00;;;;;;;19.10;4.85;;;7.20;99.90;;;;;;5047143;28;20049;-77
2022/11/25 02:17:25;;;;;;;21.33;5.05;;;7.20;99.90;;;;;;5048662;28;20045;-77
2022/11/25 02:20:08;;;;;;;25.10;5.28;;;7.30;99.90;;;;;;5047251;28;20198;-82
2022/11/25 02:22:36;;;;;;;23.30;4.95;;;7.20;99.90;;;;;;5047115;28;20057;-77
2022/11/25 02:25:21;;;;;;;26.80;5.82;;;7.30;99.90;;;;;;5047267;28;20084;-77
2022/11/25 02:27:53;;;;;;;26.23;5.53;;;7.30;99.90;;;;;;5047731;28;20474;-81
2022/11/25 02:30:18;;;;;;;27.85;6.05;;;7.30;99.90;;;;;;5064426;28;20044;-77
2022/11/25 02:32:46;;;;;;;30.35;6.15;;;7.30;99.90;;;;;;5043681;28;20049;-77
2022/11/25 02:35:25;;;;;;;24.58;6.00;;;7.30;99.90;;;;;;5031012;28;20150;-77
2022/11/25 02:37:53;;;;;;;33.92;7.78;;;7.30;99.90;;;;;;5045332;28;20065;-78
2022/11/25 02:40:19;;;;;;;35.38;7.28;;;7.30;99.90;;;;;;5046736;28;20053;-77
2022/11/25 02:42:47;;;;;;;27.70;7.40;;;7.40;99.90;;;;;;5016319;28;20052;-82
2022/11/25 02:45:16;;;;;;;27.75;7.60;;;7.40;99.90;;;;;;5038377;28;20140;-80
2022/11/25 02:47:42;;;;;;;28.67;7.63;;;7.40;99.90;;;;;;5029149;28;20080;-78
2022/11/25 02:50:08;;;;;;;27.52;7.43;;;7.40;99.90;;;;;;5022728;28;20081;-78
2022/11/25 02:52:33;;;;;;;25.67;7.35;;;7.40;99.90;;;;;;5040736;28;20048;-81
2022/11/25 02:54:59;;;;;;;29.98;7.57;;;7.40;99.90;;;;;;5037487;28;20045;-78
2022/11/25 02:57:25;;;;;;;29.30;6.78;;;7.40;99.90;;;;;;5036026;28;20049;-78
2022/11/25 02:59:50;;;;;;;25.67;8.07;;;7.40;99.90;;;;;;5038201;28;20388;-78
2022/11/25 03:02:16;;;;;;;33.10;7.78;;;7.40;99.90;;;;;;5043939;28;20199;-77
2022/11/25 03:04:41;;;;;;;33.05;8.45;;;7.40;99.90;;;;;;5043933;28;20113;-77
2022/11/25 03:07:07;;;;;;;23.67;7.65;;;7.40;99.90;;;;;;5039221;28;20037;-78
2022/11/25 03:09:33;;;;;;;30.42;7.78;;;7.50;99.90;;;;;;5048010;28;20045;-78
2022/11/25 03:14:43;;;;;;;31.15;8.25;;;7.50;99.90;;;;;;5035279;28;20060;-77
2022/11/25 03:17:08;;;;;;;34.95;8.18;;;7.50;99.90;;;;;;5032704;28;20049;-79
2022/11/25 03:19:34;;;;;;;32.25;8.68;;;7.50;99.90;;;;;;5048758;28;20418;-78
2022/11/25 03:22:00;;;;;;;33.22;8.90;;;7.60;99.90;;;;;;5048415;28;20402;-84
2022/11/25 03:24:25;;;;;;;25.60;8.77;;;7.60;99.90;;;;;;5034192;28;20406;-78
2022/11/25 03:26:51;;;;;;;42.42;9.20;;;7.60;99.90;;;;;;5047872;28;20135;-78
2022/11/25 03:29:16;;;;;;;44.33;10.30;;;7.50;99.90;;;;;;5011341;28;20041;-78
2022/11/25 03:31:42;;;;;;;20.70;7.40;;;7.60;99.90;;;;;;5051569;28;20048;-77
2022/11/25 03:34:08;;;;;;;31.40;9.68;;;7.60;99.90;;;;;;5053633;28;20410;-77
2022/11/25 03:36:34;;;;;;;34.05;10.27;;;7.60;99.90;;;;;;5017864;28;20036;-81
2022/11/25 03:38:59;;;;;;;41.70;10.35;;;7.60;99.90;;;;;;5047946;28;20153;-77
2022/11/25 03:41:25;;;;;;;42.72;11.52;;;7.60;99.90;;;;;;5045364;28;20045;-78
2022/11/25 03:43:51;;;;;;;34.25;9.32;;;7.60;99.90;;;;;;5045991;28;20126;-79
2022/11/25 03:46:17;;;;;;;34.53;10.32;;;7.60;99.90;;;;;;5047168;28;20048;-78
2022/11/25 03:48:43;;;;;;;42.28;10.88;;;7.70;99.90;;;;;;5016122;28;20040;-78
2022/11/25 03:51:08;;;;;;;34.33;11.40;;;7.70;99.90;;;;;;5045653;28;20049;-79
2022/11/25 03:53:34;;;;;;;35.25;10.77;;;7.70;99.90;;;;;;5049758;28;20057;-79
2022/11/25 03:55:59;;;;;;;36.08;10.45;;;7.70;99.90;;;;;;5043774;28;20044;-78
2022/11/25 03:58:25;;;;;;;40.15;11.15;;;7.70;99.90;;;;;;5046544;28;20077;-78
2022/11/25 04:00:51;;;;;;;37.33;10.25;;;7.70;99.90;;;;;;5037176;28;20038;-78
2022/11/25 04:03:16;;;;;;;42.35;10.50;;;7.60;99.90;;;;;;5009968;28;20196;-77
2022/11/25 04:05:42;;;;;;;39.30;12.63;;;7.70;99.90;;;;;;5023321;28;20131;-78
2022/11/25 04:08:08;;;;;;;40.13;11.38;;;7.70;99.90;;;;;;5035848;28;20391;-78
2022/11/25 04:10:34;;;;;;;37.13;10.63;;;7.70;99.90;;;;;;5013195;28;20135;-78
2022/11/25 04:12:59;;;;;;;37.03;10.73;;;7.80;99.90;;;;;;5045257;28;20047;-78
2022/11/25 04:15:25;;;;;;;45.45;11.88;;;7.70;99.90;;;;;;5014383;28;20163;-78
2022/11/25 04:17:51;;;;;;;34.22;11.77;;;7.70;99.90;;;;;;5046601;28;20387;-80
2022/11/25 04:20:16;;;;;;;39.63;11.10;;;7.70;99.90;;;;;;5059773;28;20042;-78
2022/11/25 04:22:42;;;;;;;44.38;11.75;;;7.80;99.90;;;;;;5025797;28;20372;-78
2022/11/25 04:25:09;;;;;;;34.22;10.57;;;7.80;99.90;;;;;;5015304;28;20079;-84
2022/11/25 04:27:35;;;;;;;51.42;15.65;;;7.80;99.90;;;;;;5047159;28;20053;-80
2022/11/25 04:30:00;;;;;;;39.88;12.10;;;7.70;99.90;;;;;;5029917;28;20047;-78
2022/11/25 04:32:26;;;;;;;45.67;13.18;;;7.80;99.90;;;;;;5026916;28;20057;-78
2022/11/25 04:34:52;;;;;;;39.15;11.57;;;7.80;99.90;;;;;;5042623;28;20052;-77
2022/11/25 04:37:18;;;;;;;34.20;10.90;;;7.80;99.90;;;;;;5030956;28;20049;-77
2022/11/25 04:39:43;;;;;;;41.15;11.70;;;7.80;99.90;;;;;;5049967;28;20044;-78
2022/11/25 04:44:53;;;;;;;35.80;11.85;;;7.90;99.90;;;;;;5045630;28;20060;-79
2022/11/25 04:47:19;;;;;;;49.38;12.88;;;7.80;99.90;;;;;;5051712;28;20033;-78
2022/11/25 04:49:44;;;;;;;39.63;13.27;;;7.90;99.90;;;;;;5058170;28;20045;-78
2022/11/25 04:52:10;;;;;;;48.65;13.88;;;7.90;99.90;;;;;;5032385;28;20055;-84
2022/11/25 04:54:36;;;;;;;44.53;14.20;;;7.90;99.90;;;;;;5036473;28;20076;-79
2022/11/25 04:57:01;;;;;;;40.33;12.60;;;7.90;99.90;;;;;;5028704;28;20048;-78
2022/11/25 04:59:39;;;;;;;46.33;13.95;;;7.90;99.90;;;;;;5051242;28;20037;-78
2022/11/25 05:02:19;;;;;;;40.40;12.18;;;7.80;99.90;;;;;;5016168;28;20045;-78
2022/11/25 05:04:46;;;;;;;46.92;15.30;;;7.80;99.90;;;;;;5047883;28;20064;-78
2022/11/25 05:07:13;;;;;;;38.03;13.60;;;7.70;99.90;;;;;;5032721;28;20068;-78
2022/11/25 05:09:39;;;;;;;38.00;14.30;;;7.70;99.90;;;;;;5030778;28;20056;-81
2022/11/25 05:12:07;;;;;;;51.75;16.10;;;7.70;99.90;;;;;;5034269;28;20081;-78
2022/11/25 05:14:34;;;;;;;43.42;13.05;;;7.70;99.90;;;;;;5031229;28;20438;-77
2022/11/25 05:17:01;;;;;;;45.80;14.55;;;7.70;99.90;;;;;;5026293;28;20057;-78
2022/11/25 05:19:27;;;;;;;51.95;15.32;;;7.70;99.90;;;;;;5046507;28;20096;-79
2022/11/25 05:21:53;;;;;;;45.88;15.55;;;7.70;99.90;;;;;;5020543;28;20144;-78
2022/11/25 05:24:18;;;;;;;44.22;15.23;;;7.70;99.90;;;;;;5049818;28;20056;-78
2022/11/25 05:26:44;;;;;;;44.67;14.73;;;7.60;99.90;;;;;;5034608;28;20133;-78
2022/11/25 05:29:10;;;;;;;55.67;16.50;;;7.70;99.90;;;;;;5059614;28;20049;-78
2022/11/25 05:31:36;;;;;;;51.95;15.95;;;7.60;99.90;;;;;;5041456;28;20045;-78
2022/11/25 05:34:03;;;;;;;53.95;16.80;;;7.60;99.90;;;;;;5032803;28;20491;-76
2022/11/25 05:36:28;;;;;;;45.58;17.00;;;7.60;99.90;;;;;;5038043;28;20167;-76
2022/11/25 05:38:58;;;;;;;48.05;16.58;;;7.60;99.90;;;;;;5034027;28;20149;-76
2022/11/25 05:41:24;;;;;;;56.65;17.25;;;7.60;99.90;;;;;;5039783;28;20559;-76
2022/11/25 05:43:50;;;;;;;51.70;16.48;;;7.70;99.90;;;;;;5050323;28;20048;-76
2022/11/25 05:46:16;;;;;;;61.42;19.48;;;7.70;99.90;;;;;;5037689;28;20060;-76
2022/11/25 05:48:41;;;;;;;51.20;16.40;;;7.70;99.90;;;;;;5020110;28;20045;-77
2022/11/25 05:51:08;;;;;;;42.33;17.95;;;7.70;99.90;;;;;;5027198;28;20051;-78
2022/11/25 05:53:35;;;;;;;48.83;18.15;;;7.70;99.90;;;;;;5017123;28;20052;-77
2022/11/25 05:56:05;;;;;;;49.92;19.23;;;7.70;99.90;;;;;;5041849;28;20691;-78
2022/11/25 05:58:31;;;;;;;60.92;18.27;;;7.70;99.90;;;;;;5044317;28;20567;-75
2022/11/25 06:00:57;;;;;;;53.92;18.05;;;7.70;99.90;;;;;;5035521;28;20046;-76
2022/11/25 06:03:27;;;;;;;48.42;16.70;;;7.70;99.90;;;;;;5033539;28;20060;-82
2022/11/25 06:05:55;;;;;;;47.17;16.50;;;7.70;99.90;;;;;;5040347;28;20037;-76
2022/11/25 06:08:20;;;;;;;50.92;17.15;;;7.80;99.90;;;;;;5046558;28;20127;-82
2022/11/25 06:10:46;;;;;;;49.08;17.30;;;7.80;99.90;;;;;;5045174;28;20048;-77
2022/11/25 06:13:12;;;;;;;54.38;18.98;;;7.80;99.90;;;;;;5018516;28;20168;-76
2022/11/25 06:15:42;;;;;;;53.40;18.33;;;7.80;99.90;;;;;;5014143;28;20038;-76
2022/11/25 06:18:09;;;;;;;48.45;17.98;;;7.80;99.90;;;;;;5044595;28;20041;-76
2022/11/25 06:20:35;;;;;;;44.78;15.95;;;7.80;99.90;;;;;;5030132;28;20128;-76
2022/11/25 06:23:01;;;;;;;44.72;16.92;;;7.80;99.90;;;;;;5043406;28;20438;-76
2022/11/25 06:25:27;;;;;;;39.97;16.38;;;7.80;99.90;;;;;;5069247;28;20539;-77
2022/11/25 06:27:53;;;;;;;52.90;18.85;;;7.80;99.90;;;;;;5030060;28;20049;-77
2022/11/25 06:30:20;;;;;;;39.45;15.57;;;7.80;99.90;;;;;;5033465;28;20398;-76
2022/11/25 06:32:46;;;;;;;44.13;16.60;;;7.80;99.90;;;;;;5044515;28;20053;-77
2022/11/25 06:35:11;;;;;;;41.53;15.77;;;7.80;99.90;;;;;;5048894;28;20067;-76
2022/11/25 06:37:37;;;;;;;45.95;15.90;;;7.80;99.90;;;;;;5049414;28;20529;-78
2022/11/25 06:40:03;;;;;;;42.50;14.18;;;7.80;99.90;;;;;;5052315;28;20111;-76
2022/11/25 06:42:29;;;;;;;32.28;14.02;;;7.80;99.90;;;;;;5032154;28;20055;-76
2022/11/25 06:44:55;;;;;;;44.60;15.55;;;7.80;99.90;;;;;;5049448;28;20048;-77
2022/11/25 06:47:20;;;;;;;33.65;13.02;;;7.80;99.90;;;;;;5031552;28;20130;-77
2022/11/25 06:49:46;;;;;;;38.38;13.52;;;7.70;99.90;;;;;;5032141;28;20490;-76
2022/11/25 06:52:12;;;;;;;38.85;13.20;;;7.70;99.90;;;;;;5049568;28;20049;-75
2022/11/25 06:54:40;;;;;;;35.08;12.52;;;7.70;99.90;;;;;;5044039;28;20048;-76
2022/11/25 06:57:10;;;;;;;37.70;13.50;;;7.80;99.90;;;;;;5031762;28;20053;-76
2022/11/25 06:59:36;;;;;;;33.42;11.25;;;7.80;99.90;;;;;;5043801;28;20063;-76
2022/11/25 07:02:03;;;;;;;36.45;12.40;;;7.70;99.90;;;;;;5046757;28;20049;-76
2022/11/25 07:04:29;;;;;;;33.63;12.32;;;7.80;99.90;;;;;;5049602;28;20415;-80
2022/11/25 07:06:55;;;;;;;36.85;11.48;;;7.80;99.90;;;;;;5021526;28;20096;-76
2022/11/25 07:09:21;;;;;;;27.60;9.38;;;7.70;99.90;;;;;;5014614;28;20554;-76
2022/11/25 07:11:47;;;;;;;37.22;11.50;;;7.60;99.90;;;;;;5047049;28;20044;-76
2022/11/25 07:14:14;;;;;;;28.13;10.15;;;7.60;99.90;;;;;;5047879;28;20052;-75
2022/11/25 07:16:42;;;;;;;25.95;9.15;;;7.60;99.90;;;;;;5049567;28;20048;-76
2022/11/25 07:19:11;;;;;;;31.92;8.85;;;7.60;99.90;;;;;;5034179;28;20065;-75
2022/11/25 07:21:37;;;;;;;26.45;9.05;;;7.60;99.90;;;;;;5020891;28;20114;-76
2022/11/25 07:24:05;;;;;;;37.47;9.35;;;7.70;99.90;;;;;;5017324;28;20200;-75
2022/11/25 07:26:34;;;;;;;26.58;8.45;;;7.70;99.90;;;;;;5027113;28;20048;-81
2022/11/25 07:29:02;;;;;;;30.92;8.95;;;7.80;99.90;;;;;;5047513;28;20168;-75
2022/11/25 07:31:31;;;;;;;19.60;7.63;;;7.80;99.90;;;;;;5048507;28;20061;-75
2022/11/25 07:33:59;;;;;;;24.27;7.53;;;7.90;99.90;;;;;;5048193;28;20049;-75
2022/11/25 07:36:25;;;;;;;21.73;7.45;;;7.70;99.90;;;;;;5064464;28;20045;-76
2022/11/25 07:38:51;;;;;;;29.95;8.80;;;7.60;99.90;;;;;;5047765;28;20111;-76
2022/11/25 07:41:20;;;;;;;26.95;8.43;;;7.60;99.90;;;;;;5044069;28;20498;-76
2022/11/25 07:43:51;;;;;;;21.50;7.45;;;7.50;99.90;;;;;;5062373;28;20049;-76
2022/11/25 07:46:23;;;;;;;24.90;8.25;;;7.40;99.90;;;;;;5063152;28;20037;-78
2022/11/25 07:48:49;;;;;;;26.63;7.88;;;7.40;99.90;;;;;;5047523;28;20597;-77
2022/11/25 07:51:31;;;;;;;31.48;7.25;;;7.30;99.90;;;;;;5047814;28;20139;-76
2022/11/25 07:53:59;;;;;;;15.25;6.22;;;7.20;99.90;;;;;;5049866;28;20051;-76
2022/11/25 07:56:25;;;;;;;20.42;6.53;;;7.30;99.90;;;;;;5043934;28;20060;-75
2022/11/25 07:58:51;;;;;;;26.27;7.88;;;7.30;99.90;;;;;;5011406;28;20132;-76
2022/11/25 08:01:18;;;;;;;27.92;7.57;;;7.30;99.90;;;;;;5031726;28;20129;-76
2022/11/25 08:03:45;;;;;;;21.92;7.03;;;7.30;99.90;;;;;;5030583;28;20053;-76
2022/11/25 08:06:13;;;;;;;22.27;7.35;;;7.30;99.90;;;;;;5063579;28;20044;-76
2022/11/25 08:08:40;;;;;;;25.00;7.38;;;7.30;99.90;;;;;;5044764;28;20048;-81
2022/11/25 08:11:18;;;;;;;29.02;7.05;;;7.20;99.90;;;;;;5047241;28;20110;-78
2022/11/25 08:13:44;;;;;;;21.40;6.90;;;7.20;99.90;;;;;;5061981;28;20118;-77
2022/11/25 08:16:11;;;;;;;27.08;7.25;;;7.20;99.90;;;;;;5063830;28;20135;-75
2022/11/25 08:18:38;;;;;;;22.42;7.45;;;7.20;99.90;;;;;;5044253;28;20055;-78
2022/11/25 08:21:05;;;;;;;22.77;7.43;;;7.20;99.90;;;;;;5043255;28;20135;-76
2022/11/25 08:23:32;;;;;;;25.27;7.35;;;7.20;99.90;;;;;;5063495;28;20383;-76
2022/11/25 08:26:03;;;;;;;22.75;7.43;;;7.10;99.90;;;;;;5045263;28;20143;-76
2022/11/25 08:28:28;;;;;;;27.33;7.65;;;7.10;99.90;;;;;;5046736;28;20114;-77
2022/11/25 08:31:04;;;;;;;28.33;8.85;;;7.20;99.90;;;;;;5030742;28;20041;-76
2022/11/25 08:33:31;;;;;;;29.17;8.07;;;7.10;99.90;;;;;;5039802;28;20490;-77
2022/11/25 08:35:56;;;;;;;23.45;8.35;;;7.10;99.90;;;;;;5043320;28;20439;-76
2022/11/25 08:38:22;;;;;;;23.30;8.00;;;7.20;99.90;;;;;;5047490;28;20131;-76
2022/11/25 08:40:48;;;;;;;34.17;8.15;;;7.20;99.90;;;;;;5042309;28;20060;-76
2022/11/25 08:43:14;;;;;;;27.77;7.80;;;7.20;99.90;;;;;;5047276;28;20124;-77
2022/11/25 08:45:40;;;;;;;24.83;8.60;;;7.30;99.90;;;;;;5047121;28;20147;-76
2022/11/25 08:48:06;;;;;;;22.55;7.60;;;7.30;99.90;;;;;;5044965;28;20059;-81
2022/11/25 08:50:32;;;;;;;22.52;7.90;;;7.40;99.90;;;;;;5028234;28;20045;-77
2022/11/25 08:52:59;;;;;;;21.67;7.72;;;7.40;99.90;;;;;;5060482;28;20264;-76
2022/11/25 08:55:26;;;;;;;20.55;8.32;;;7.50;99.90;;;;;;5054207;28;20059;-77
2022/11/25 08:57:53;;;;;;;21.25;8.10;;;7.50;99.90;;;;;;5031266;28;20049;-76
2022/11/25 09:00:19;;;;;;;19.25;8.20;;;7.50;99.90;;;;;;5041512;28;20088;-78
2022/11/25 09:02:45;;;;;;;22.65;8.13;;;7.60;99.90;;;;;;5061281;28;20048;-83
2022/11/25 09:05:14;;;;;;;22.77;9.07;;;7.70;99.90;;;;;;5046588;28;20049;-76
2022/11/25 09:07:39;;;;;;;21.23;8.45;;;7.70;99.90;;;;;;5067395;28;20044;-77
2022/11/25 09:10:08;;;;;;;30.23;8.60;;;7.60;99.90;;;;;;5041883;28;20098;-77
2022/11/25 09:12:34;;;;;;;18.98;7.82;;;7.60;99.90;;;;;;5045824;28;20049;-76
2022/11/25 09:15:00;;;;;;;22.85;8.35;;;7.70;99.90;;;;;;5041834;28;21022;-78
2022/11/25 09:17:26;;;;;;;19.15;8.38;;;7.70;99.90;;;;;;5047572;28;20407;-78
2022/11/25 09:19:53;;;;;;;24.23;8.88;;;7.70;99.90;;;;;;5015824;28;20046;-81
2022/11/25 09:22:18;;;;;;;25.17;9.50;;;7.80;99.90;;;;;;5053697;28;20052;-78
2022/11/25 09:24:45;;;;;;;23.48;9.23;;;7.80;99.90;;;;;;5048754;28;20500;-77
2022/11/25 09:27:10;;;;;;;23.10;9.18;;;7.80;99.90;;;;;;5048277;28;20088;-77
2022/11/25 09:29:36;;;;;;;20.58;8.25;;;7.90;99.90;;;;;;5049753;28;20080;-77
2022/11/25 09:32:02;;;;;;;31.10;9.05;;;7.80;99.90;;;;;;5046222;28;20192;-77
2022/11/25 09:34:28;;;;;;;19.83;8.07;;;7.80;99.90;;;;;;5065253;28;20502;-77
2022/11/25 09:36:54;;;;;;;20.88;8.98;;;7.90;99.90;;;;;;5061988;28;20052;-77
2022/11/25 09:39:19;;;;;;;23.10;8.88;;;7.90;99.90;;;;;;5048082;28;20063;-77
2022/11/25 09:48:08;;;;;;;16.27;6.75;;;8.10;99.90;;;;;;5047170;28;20434;-77
2022/11/25 09:51:00;;;;;;;16.70;7.63;;;8.30;99.90;;;;;;5048401;28;20128;-77
2022/11/25 09:53:36;;;;;;;21.48;8.18;;;8.40;99.90;;;;;;5036379;28;20139;-78
2022/11/25 09:56:05;;;;;;;16.35;6.32;;;8.30;99.90;;;;;;5051605;28;20405;-77
2022/11/25 09:58:37;;;;;;;16.63;6.70;;;8.30;99.90;;;;;;5052109;28;20044;-77
2022/11/25 10:01:14;;;;;;;16.17;7.20;;;8.30;99.90;;;;;;5045235;28;20044;-77
2022/11/25 10:04:01;;;;;;;15.20;6.88;;;8.30;99.90;;;;;;5031912;28;20067;-77
2022/11/25 10:06:31;;;;;;;15.65;6.53;;;8.30;99.90;;;;;;5049363;28;20045;-77
2022/11/25 10:09:00;;;;;;;20.40;6.75;;;8.30;99.90;;;;;;5037133;28;20506;-84
2022/11/25 10:11:52;;;;;;;20.45;6.95;;;8.40;99.90;;;;;;5033645;28;20057;-76
2022/11/25 10:14:38;;;;;;;16.52;6.40;;;8.40;99.90;;;;;;5066923;28;20040;-79
2022/11/25 10:17:10;;;;;;;11.18;5.70;;;8.40;99.90;;;;;;5041396;28;20502;-77
2022/11/25 10:20:11;;;;;;;20.08;6.55;;;8.50;99.90;;;;;;5046876;28;20069;-77
2022/11/25 10:22:42;;;;;;;12.38;5.38;;;8.50;99.90;;;;;;5033306;28;20041;-78
2022/11/25 10:25:16;;;;;;;16.73;5.80;;;8.50;99.90;;;;;;5043934;28;20047;-77
2022/11/25 10:27:58;;;;;;;15.73;6.15;;;8.50;99.90;;;;;;5031920;28;20509;-78
2022/11/25 10:30:43;;;;;;;15.38;5.40;;;8.60;99.90;;;;;;5043012;28;20053;-77
2022/11/25 10:33:22;;;;;;;14.52;5.30;;;8.60;99.90;;;;;;5048567;28;20056;-78
2022/11/25 10:36:14;;;;;;;12.95;5.25;;;8.70;99.90;;;;;;5043198;28;20034;-77
2022/11/25 10:39:04;;;;;;;12.13;4.85;;;8.70;99.90;;;;;;5043220;28;20064;-76
2022/11/25 10:41:55;;;;;;;11.50;5.13;;;8.70;99.90;;;;;;5041891;28;20060;-78
2022/11/25 10:44:41;;;;;;;11.32;4.65;;;8.80;99.90;;;;;;5047539;28;20118;-77
2022/11/25 10:47:24;;;;;;;15.63;5.50;;;8.80;99.90;;;;;;5046282;28;20053;-77
2022/11/25 10:50:05;;;;;;;12.20;4.45;;;8.80;99.90;;;;;;5046165;28;20051;-77
2022/11/25 10:52:38;;;;;;;13.23;4.80;;;8.80;99.90;;;;;;5025545;28;20044;-75
2022/11/25 10:55:25;;;;;;;16.50;5.53;;;8.80;99.90;;;;;;5046007;28;20091;-83
2022/11/25 10:57:51;;;;;;;13.98;5.57;;;8.80;99.90;;;;;;5037109;28;20053;-76
2022/11/25 11:00:37;;;;;;;10.27;4.50;;;8.90;99.90;;;;;;5044697;28;20451;-76
2022/11/25 11:03:23;;;;;;;17.75;5.80;;;9.00;99.90;;;;;;5046478;28;20151;-83
2022/11/25 11:05:51;;;;;;;12.85;4.55;;;9.00;99.90;;;;;;5048598;28;20084;-76
2022/11/25 11:08:23;;;;;;;13.43;4.57;;;9.00;99.90;;;;;;5049155;28;20045;-75
2022/11/25 11:11:17;;;;;;;13.23;4.95;;;9.00;99.90;;;;;;5042960;28;20067;-75
2022/11/25 11:13:44;;;;;;;16.08;4.50;;;9.10;99.90;;;;;;5044882;28;20414;-77
2022/11/25 11:16:28;;;;;;;17.10;4.90;;;9.10;99.90;;;;;;5044370;28;20119;-78
2022/11/25 11:18:55;;;;;;;16.30;4.32;;;9.20;99.90;;;;;;5046017;28;20165;-77
2022/11/25 11:21:27;;;;;;;12.15;4.05;;;9.20;99.90;;;;;;5048259;28;20111;-82
2022/11/25 11:23:55;;;;;;;13.15;4.00;;;9.20;99.90;;;;;;5046047;28;20063;-78
2022/11/25 11:26:26;;;;;;;12.27;4.50;;;9.20;99.90;;;;;;5046658;28;20068;-78
2022/11/25 11:29:07;;;;;;;14.13;4.68;;;9.30;99.90;;;;;;5049185;28;20527;-77
2022/11/25 11:31:39;;;;;;;17.55;5.10;;;9.50;99.90;;;;;;5063127;28;20064;-76
2022/11/25 11:34:10;;;;;;;15.77;6.25;;;9.50;99.90;;;;;;5045068;28;20041;-78
2022/11/25 11:36:48;;;;;;;15.68;4.00;;;9.60;99.90;;;;;;5037620;28;20049;-79
2022/11/25 11:39:41;;;;;;;17.38;3.97;;;9.60;99.90;;;;;;5040078;28;20518;-79
2022/11/25 11:42:32;;;;;;;13.60;3.90;;;9.60;99.90;;;;;;5049186;28;20045;-79
2022/11/25 11:45:23;;;;;;;16.92;4.07;;;9.60;99.90;;;;;;5037223;28;20056;-79
2022/11/25 11:48:09;;;;;;;17.00;3.50;;;9.60;99.90;;;;;;5035133;28;20103;-80
2022/11/25 11:50:47;;;;;;;17.90;3.65;;;9.60;99.90;;;;;;5040753;28;20053;-79
2022/11/25 11:53:38;;;;;;;16.38;3.20;;;9.60;99.90;;;;;;5049813;28;20044;-80
2022/11/25 11:56:20;;;;;;;15.70;3.90;;;9.60;99.90;;;;;;5035104;28;20045;-79
2022/11/25 11:58:52;;;;;;;12.10;3.05;;;9.60;99.90;;;;;;5058351;28;20449;-80
2022/11/25 12:01:36;;;;;;;14.63;3.90;;;9.50;99.90;;;;;;5041165;28;20040;-80
2022/11/25 12:04:14;;;;;;;9.10;3.45;;;9.70;99.90;;;;;;5018633;28;20076;-79
2022/11/25 12:06:43;;;;;;;17.38;4.03;;;9.70;99.90;;;;;;5035170;28;20037;-78
2022/11/25 12:09:15;;;;;;;13.00;3.40;;;9.80;99.90;;;;;;5027005;28;20052;-79
2022/11/25 12:11:46;;;;;;;17.70;3.40;;;9.80;99.90;;;;;;5061989;28;20164;-79
2022/11/25 12:14:31;;;;;;;12.38;3.63;;;9.90;99.90;;;;;;5031528;28;20041;-79
2022/11/25 12:17:00;;;;;;;11.88;3.30;;;9.90;99.90;;;;;;5058484;28;20056;-78
2022/11/25 12:19:37;;;;;;;11.73;3.20;;;10.00;99.90;;;;;;5031056;28;20184;-79
2022/11/25 12:22:36;;;;;;;13.55;2.95;;;10.10;99.90;;;;;;5018369;28;20049;-77
2022/11/25 12:25:14;;;;;;;10.48;3.03;;;10.00;96.80;;;;;;5041565;28;20075;-78
2022/11/25 12:27:41;;;;;;;11.07;2.58;;;9.90;99.90;;;;;;5031059;28;20479;-78
2022/11/25 12:30:12;;;;;;;11.75;2.80;;;9.80;99.90;;;;;;5025451;28;20552;-79
2022/11/25 12:33:11;;;;;;;13.02;2.65;;;9.80;99.90;;;;;;5027784;28;20526;-78
2022/11/25 12:35:47;;;;;;;9.98;2.55;;;9.80;99.90;;;;;;5043140;28;20132;-78
2022/11/25 12:38:22;;;;;;;15.00;3.30;;;9.80;99.90;;;;;;5049846;28;20775;-78
2022/11/25 12:41:30;;;;;;;14.52;3.50;;;9.70;99.90;;;;;;5043415;28;20109;-78
2022/11/25 12:44:16;;;;;;;10.45;2.38;;;9.70;99.90;;;;;;5021857;28;20080;-78
2022/11/25 12:46:45;;;;;;;10.20;2.78;;;9.80;99.90;;;;;;5038526;28;20124;-78
2022/11/25 12:49:29;;;;;;;12.82;2.95;;;9.80;99.90;;;;;;5039282;28;20084;-78
2022/11/25 12:52:23;;;;;;;17.10;2.90;;;9.70;99.90;;;;;;5041531;28;20462;-79
2022/11/25 12:54:49;;;;;;;11.07;3.00;;;9.60;99.90;;;;;;5057905;28;20076;-80
2022/11/25 12:57:45;;;;;;;14.80;3.28;;;9.50;99.90;;;;;;5046039;28;20149;-78
2022/11/25 13:00:24;;;;;;;11.02;2.75;;;9.50;99.90;;;;;;5062482;28;20049;-78
2022/11/25 13:03:24;;;;;;;11.57;2.90;;;9.50;99.90;;;;;;5049361;28;20049;-79
2022/11/25 13:06:12;;;;;;;10.63;3.45;;;9.50;99.90;;;;;;5048020;28;20041;-78
2022/11/25 13:09:27;;;;;;;12.15;3.55;;;9.50;99.90;;;;;;5028131;28;20038;-78
2022/11/25 13:12:11;;;;;;;14.07;2.92;;;9.60;99.90;;;;;;5024417;28;20402;-77
2022/11/25 13:15:12;;;;;;;14.48;3.55;;;9.70;99.90;;;;;;5048366;28;20040;-80